createdAt,value
2019-04-25T00:01:43.923Z,11.53
2019-04-25T00:04:11.724Z,10.80
2019-04-25T00:06:38.589Z,10.70
2019-04-25T00:09:09.170Z,11.17
2019-04-25T00:11:35.001Z,10.37
2019-04-25T00:14:01.589Z,11.33
2019-04-25T00:16:31.113Z,11.10
2019-04-25T00:18:57.141Z,11.87
2019-04-25T00:21:37.081Z,12.57
2019-04-25T00:24:08.405Z,10.87
2019-04-25T00:26:38.996Z,10.73
2019-04-25T00:29:05.032Z,10.50
2019-04-25T00:31:31.899Z,10.87
2019-04-25T00:33:57.968Z,11.17
2019-04-25T00:36:23.827Z,11.20
2019-04-25T00:38:50.218Z,11.67
2019-04-25T00:41:17.519Z,11.23
2019-04-25T00:43:44.082Z,11.20
2019-04-25T00:46:11.385Z,12.27
2019-04-25T00:48:37.385Z,11.87
2019-04-25T00:51:03.406Z,12.53
2019-04-25T00:53:29.245Z,11.63
2019-04-25T00:55:55.193Z,12.03
2019-04-25T00:58:23.019Z,11.13
2019-04-25T01:00:56.923Z,11.60
2019-04-25T01:03:24.738Z,11.47
2019-04-25T01:05:53.277Z,11.60
2019-04-25T01:08:18.723Z,11.53
2019-04-25T01:10:44.757Z,11.70
2019-04-25T01:13:11.474Z,11.63
2019-04-25T01:15:37.557Z,12.07
2019-04-25T01:18:03.684Z,11.40
2019-04-25T01:20:29.579Z,11.93
2019-04-25T01:22:57.762Z,11.87
2019-04-25T01:25:23.452Z,11.07
2019-04-25T01:27:49.775Z,10.03
2019-04-25T01:30:19.031Z,9.77
2019-04-25T01:32:44.979Z,9.40
2019-04-25T01:35:13.995Z,9.83
2019-04-25T01:37:43.725Z,9.53
2019-04-25T01:40:14.679Z,9.23
2019-04-25T01:42:43.835Z,9.33
2019-04-25T01:45:10.211Z,9.10
2019-04-25T01:47:36.067Z,10.30
2019-04-25T01:50:04.001Z,10.20
2019-04-25T01:52:30.063Z,10.07
2019-04-25T01:54:56.266Z,10.00
2019-04-25T01:57:23.965Z,9.60
2019-04-25T01:59:49.959Z,10.33
2019-04-25T02:02:17.702Z,9.90
2019-04-25T02:04:44.367Z,9.57
2019-04-25T02:07:10.615Z,9.47
2019-04-25T02:09:36.764Z,9.87
2019-04-25T02:12:07.576Z,9.87
2019-04-25T02:14:33.747Z,10.37
2019-04-25T02:17:00.364Z,10.60
2019-04-25T02:19:26.386Z,11.10
2019-04-25T02:21:54.509Z,11.10
2019-04-25T02:24:20.346Z,11.63
2019-04-25T02:26:46.232Z,11.23
2019-04-25T02:29:13.591Z,10.83
2019-04-25T02:31:39.741Z,11.30
2019-04-25T02:34:08.343Z,11.13
2019-04-25T02:36:34.668Z,10.70
2019-04-25T02:39:03.448Z,11.00
2019-04-25T02:41:28.549Z,11.53
2019-04-25T02:43:59.982Z,11.93
2019-04-25T02:46:41.139Z,12.70
2019-04-25T02:49:09.758Z,12.33
2019-04-25T02:51:40.305Z,12.93
2019-04-25T02:54:08.072Z,13.17
2019-04-25T02:56:37.861Z,12.13
2019-04-25T02:59:03.548Z,13.60
2019-04-25T03:01:30.147Z,12.00
2019-04-25T03:03:57.423Z,11.83
2019-04-25T03:06:25.052Z,11.40
2019-04-25T03:08:51.175Z,10.97
2019-04-25T03:11:17.103Z,10.13
2019-04-25T03:13:44.157Z,9.80
2019-04-25T03:16:11.061Z,9.93
2019-04-25T03:18:39.159Z,9.83
2019-04-25T03:21:13.890Z,9.83
2019-04-25T03:23:37.733Z,9.37
2019-04-25T03:26:05.202Z,9.63
2019-04-25T03:28:33.992Z,11.07
2019-04-25T03:31:02.096Z,11.73
2019-04-25T03:33:28.120Z,12.33
2019-04-25T03:35:54.457Z,12.10
2019-04-25T03:38:20.541Z,12.27
2019-04-25T03:40:46.578Z,12.77
2019-04-25T03:43:14.838Z,13.37
2019-04-25T03:45:40.345Z,12.47
2019-04-25T03:48:06.475Z,12.97
2019-04-25T03:50:34.069Z,13.60
2019-04-25T03:53:00.125Z,13.00
2019-04-25T03:55:26.089Z,13.20
2019-04-25T03:57:51.908Z,12.83
2019-04-25T04:00:18.053Z,12.33
2019-04-25T04:02:44.383Z,12.77
2019-04-25T04:05:11.441Z,11.33
2019-04-25T04:07:37.428Z,11.70
2019-04-25T04:10:05.776Z,11.30
2019-04-25T04:12:33.913Z,12.10
2019-04-25T04:15:00.288Z,10.30
2019-04-25T04:17:28.036Z,11.07
2019-04-25T04:20:03.823Z,11.00
2019-04-25T04:22:37.638Z,11.43
2019-04-25T04:25:05.927Z,12.93
2019-04-25T04:27:31.820Z,12.17
2019-04-25T04:29:57.656Z,12.07
2019-04-25T04:32:24.208Z,11.33
2019-04-25T04:34:50.334Z,10.50
2019-04-25T04:37:16.354Z,10.27
2019-04-25T04:39:43.726Z,10.40
2019-04-25T04:42:09.727Z,10.10
2019-04-25T04:44:35.572Z,10.00
2019-04-25T04:47:01.953Z,9.93
2019-04-25T04:49:28.293Z,8.77
2019-04-25T04:51:54.255Z,9.53
2019-04-25T04:54:20.158Z,8.77
2019-04-25T04:56:46.046Z,8.60
2019-04-25T04:59:12.856Z,8.83
2019-04-25T05:01:58.486Z,8.50
2019-04-25T05:04:26.307Z,7.87
2019-04-25T05:06:54.104Z,8.17
2019-04-25T05:09:23.779Z,7.90
2019-04-25T05:11:49.615Z,7.40
2019-04-25T05:14:16.221Z,7.37
2019-04-25T05:16:43.198Z,7.90
2019-04-25T05:19:09.364Z,6.47
2019-04-25T05:21:35.283Z,6.67
2019-04-25T05:24:01.114Z,6.63
2019-04-25T05:26:27.077Z,6.27
2019-04-25T05:28:53.311Z,6.77
2019-04-25T05:31:25.712Z,6.37
2019-04-25T05:33:53.512Z,6.70
2019-04-25T05:36:19.737Z,7.17
2019-04-25T05:38:45.585Z,7.90
2019-04-25T05:41:14.788Z,7.73
2019-04-25T05:43:41.222Z,7.50
2019-04-25T05:46:07.323Z,8.13
2019-04-25T05:48:34.028Z,8.93
2019-04-25T05:51:00.003Z,8.40
2019-04-25T05:53:26.332Z,7.90
2019-04-25T05:55:52.158Z,8.20
2019-04-25T05:58:18.545Z,7.43
2019-04-25T06:00:44.737Z,7.20
2019-04-25T06:03:10.827Z,7.37
2019-04-25T06:05:36.758Z,7.90
2019-04-25T06:08:04.342Z,7.47
2019-04-25T06:10:38.185Z,7.37
2019-04-25T06:13:13.644Z,7.20
2019-04-25T06:15:40.313Z,7.30
2019-04-25T06:18:17.142Z,6.93
2019-04-25T06:20:44.287Z,7.20
2019-04-25T06:23:18.886Z,6.93
2019-04-25T06:25:45.282Z,6.83
2019-04-25T06:28:16.024Z,6.67
2019-04-25T06:30:41.864Z,6.60
2019-04-25T06:33:07.971Z,5.93
2019-04-25T06:35:35.687Z,5.67
2019-04-25T06:38:03.502Z,6.60
2019-04-25T06:40:30.679Z,5.80
2019-04-25T06:42:56.632Z,6.10
2019-04-25T06:45:26.692Z,6.50
2019-04-25T06:48:06.409Z,5.80
2019-04-25T06:50:34.115Z,5.67
2019-04-25T06:53:03.521Z,5.83
2019-04-25T06:55:31.174Z,5.90
2019-04-25T06:58:08.885Z,8.10
2019-04-25T07:00:28.440Z,8.80
2019-04-25T07:02:53.249Z,10.17
2019-04-25T07:05:30.499Z,10.27
2019-04-25T07:07:47.568Z,10.73
2019-04-25T07:10:14.009Z,11.07
2019-04-25T07:12:39.981Z,11.10
2019-04-25T07:15:08.225Z,11.57
2019-04-25T07:17:34.975Z,12.40
2019-04-25T07:20:04.608Z,12.30
2019-04-25T07:22:30.722Z,11.67
2019-04-25T07:24:56.541Z,10.60
2019-04-25T07:27:25.434Z,12.47
2019-04-25T07:29:53.939Z,11.50
2019-04-25T07:32:30.820Z,11.10
2019-04-25T07:34:55.924Z,10.77
2019-04-25T07:37:21.878Z,11.53
2019-04-25T07:39:48.141Z,11.63
2019-04-25T07:42:14.152Z,11.20
2019-04-25T07:44:49.773Z,11.40
2019-04-25T07:47:07.961Z,11.63
2019-04-25T07:49:34.841Z,12.27
2019-04-25T07:52:01.115Z,13.03
2019-04-25T07:54:27.879Z,12.97
2019-04-25T07:56:55.126Z,13.87
2019-04-25T07:59:21.126Z,16.13
2019-04-25T08:01:47.067Z,15.57
2019-04-25T08:04:13.678Z,15.57
2019-04-25T08:06:39.857Z,15.63
2019-04-25T08:09:08.470Z,16.43
2019-04-25T08:11:35.101Z,15.53
2019-04-25T08:14:07.051Z,15.23
2019-04-25T08:16:35.714Z,14.20
2019-04-25T08:19:03.954Z,13.77
2019-04-25T08:21:32.104Z,13.87
2019-04-25T08:23:59.964Z,14.47
2019-04-25T08:26:25.878Z,16.33
2019-04-25T08:28:55.783Z,15.27
2019-04-25T08:31:19.594Z,15.50
2019-04-25T08:33:46.630Z,15.20
2019-04-25T08:36:13.669Z,15.97
2019-04-25T08:38:40.296Z,16.00
2019-04-25T08:41:06.305Z,15.47
2019-04-25T08:43:34.226Z,14.93
2019-04-25T08:46:00.317Z,14.57
2019-04-25T08:48:28.102Z,14.53
2019-04-25T08:51:13.498Z,14.53
2019-04-25T08:53:45.065Z,14.57
2019-04-25T08:56:13.361Z,15.50
2019-04-25T08:58:43.653Z,15.13
2019-04-25T09:01:21.575Z,14.57
2019-04-25T09:03:55.568Z,15.53
2019-04-25T09:06:22.193Z,15.23
2019-04-25T09:08:48.065Z,16.30
2019-04-25T09:11:14.045Z,16.13
2019-04-25T09:13:39.874Z,15.43
2019-04-25T09:16:05.727Z,16.07
2019-04-25T09:18:31.597Z,15.30
2019-04-25T09:20:57.453Z,14.77
2019-04-25T09:23:23.714Z,15.17
2019-04-25T09:25:49.801Z,16.17
2019-04-25T09:28:15.632Z,16.40
2019-04-25T09:30:42.430Z,16.33
2019-04-25T09:33:08.952Z,16.27
2019-04-25T09:35:36.112Z,15.77
2019-04-25T09:38:03.453Z,15.40
2019-04-25T09:40:29.519Z,15.77
2019-04-25T09:42:57.254Z,16.97
2019-04-25T09:45:43.546Z,16.73
2019-04-25T09:48:20.133Z,16.07
2019-04-25T09:51:07.507Z,14.77
2019-04-25T09:53:38.831Z,14.67
2019-04-25T09:56:04.225Z,15.60
2019-04-25T09:58:34.662Z,14.77
2019-04-25T10:01:03.809Z,13.60
2019-04-25T10:03:30.471Z,14.13
2019-04-25T10:05:56.299Z,14.43
2019-04-25T10:08:24.157Z,13.57
2019-04-25T10:10:50.230Z,14.00
2019-04-25T10:13:16.160Z,14.20
2019-04-25T10:16:03.933Z,13.67
2019-04-25T10:18:30.869Z,13.03
2019-04-25T10:20:57.006Z,11.70
2019-04-25T10:23:24.076Z,11.27
2019-04-25T10:25:50.232Z,10.97
2019-04-25T10:28:16.275Z,10.87
2019-04-25T10:30:43.514Z,10.67
2019-04-25T10:33:09.693Z,10.60
2019-04-25T10:35:46.643Z,10.50
2019-04-25T10:38:04.624Z,10.10
2019-04-25T10:40:30.732Z,10.70
2019-04-25T10:42:56.810Z,9.63
2019-04-25T10:45:24.269Z,10.10
2019-04-25T10:47:50.818Z,10.03
2019-04-25T10:50:16.872Z,9.23
2019-04-25T10:52:45.464Z,8.63
2019-04-25T10:55:11.200Z,10.50
2019-04-25T10:57:37.162Z,12.47
2019-04-25T11:00:09.628Z,12.60
2019-04-25T11:02:35.748Z,12.60
2019-04-25T11:05:04.770Z,12.77
2019-04-25T11:07:30.581Z,13.23
2019-04-25T11:09:56.422Z,10.70
2019-04-25T11:12:23.475Z,9.20
2019-04-25T11:14:49.645Z,9.03
2019-04-25T11:17:15.655Z,7.50
2019-04-25T11:19:42.486Z,6.50
2019-04-25T11:22:09.484Z,6.60
2019-04-25T11:24:35.670Z,6.90
2019-04-25T11:27:01.697Z,7.00
2019-04-25T11:29:28.136Z,5.87
2019-04-25T11:31:54.240Z,6.30
2019-04-25T11:34:21.209Z,5.47
2019-04-25T11:36:47.120Z,5.70
2019-04-25T11:39:24.355Z,5.40
2019-04-25T11:41:51.373Z,6.40
2019-04-25T11:44:17.264Z,6.20
2019-04-25T11:46:44.648Z,11.97
2019-04-25T11:49:15.077Z,5.60
2019-04-25T11:51:41.805Z,5.50
2019-04-25T11:54:08.601Z,5.40
2019-04-25T11:56:34.418Z,5.00
2019-04-25T11:59:00.271Z,5.13
2019-04-25T12:01:26.358Z,6.10
2019-04-25T12:03:52.692Z,4.73
2019-04-25T12:06:18.704Z,4.87
2019-04-25T12:08:46.508Z,4.93
2019-04-25T12:11:13.904Z,5.13
2019-04-25T12:13:40.081Z,5.70
2019-04-25T12:16:06.489Z,6.73
2019-04-25T12:18:33.901Z,6.33
2019-04-25T12:21:00.362Z,7.57
2019-04-25T12:23:26.252Z,8.53
2019-04-25T12:25:54.032Z,7.00
2019-04-25T12:28:19.860Z,6.50
2019-04-25T12:30:47.311Z,6.40
2019-04-25T12:33:21.065Z,6.63
2019-04-25T12:35:41.366Z,6.33
2019-04-25T12:38:07.214Z,6.90
2019-04-25T12:40:34.340Z,7.00
2019-04-25T12:43:00.326Z,7.43
2019-04-25T12:45:28.079Z,7.17
2019-04-25T12:47:59.361Z,6.57
2019-04-25T12:50:25.470Z,6.83
2019-04-25T12:52:51.421Z,7.20
2019-04-25T12:55:17.433Z,7.00
2019-04-25T12:57:43.285Z,6.80
2019-04-25T13:00:13.956Z,6.43
2019-04-25T13:02:40.155Z,6.37
2019-04-25T13:05:07.117Z,7.17
2019-04-25T13:07:33.129Z,6.87
2019-04-25T13:09:58.982Z,6.53
2019-04-25T13:12:25.165Z,7.17
2019-04-25T13:14:51.217Z,7.43
2019-04-25T13:17:17.069Z,7.23
2019-04-25T13:19:45.618Z,6.87
2019-04-25T13:22:11.944Z,7.87
2019-04-25T13:24:37.866Z,8.13
2019-04-25T13:27:06.138Z,7.83
2019-04-25T13:29:39.717Z,7.43
2019-04-25T13:32:22.835Z,8.20
2019-04-25T13:34:50.626Z,7.83
2019-04-25T13:37:16.665Z,8.00
2019-04-25T13:39:44.178Z,8.10
2019-04-25T13:42:11.609Z,7.97
2019-04-25T13:44:37.555Z,7.77
2019-04-25T13:47:04.602Z,7.93
2019-04-25T13:49:31.582Z,7.90
2019-04-25T13:51:57.640Z,7.63
2019-04-25T13:54:24.069Z,7.30
2019-04-25T13:56:51.060Z,7.07
2019-04-25T13:59:17.124Z,7.90
2019-04-25T14:01:44.200Z,7.50
2019-04-25T14:04:10.384Z,7.80
2019-04-25T14:06:36.305Z,8.43
2019-04-25T14:09:06.628Z,7.83
2019-04-25T14:11:34.180Z,8.50
2019-04-25T14:14:01.298Z,8.93
2019-04-25T14:16:41.072Z,8.50
2019-04-25T14:19:21.909Z,9.07
2019-04-25T14:21:48.425Z,8.40
2019-04-25T14:24:20.380Z,9.20
2019-04-25T14:26:42.244Z,8.90
2019-04-25T14:29:08.093Z,9.63
2019-04-25T14:31:44.813Z,9.13
2019-04-25T14:34:03.286Z,10.23
2019-04-25T14:36:30.251Z,11.03
2019-04-25T14:38:56.255Z,10.87
2019-04-25T14:41:22.376Z,10.87
2019-04-25T14:43:48.867Z,11.07
2019-04-25T14:46:14.917Z,11.20
2019-04-25T14:48:40.937Z,10.77
2019-04-25T14:51:06.920Z,10.53
2019-04-25T14:53:34.057Z,10.40
2019-04-25T14:56:06.792Z,10.77
2019-04-25T14:58:34.755Z,11.10
2019-04-25T15:01:00.789Z,11.00
2019-04-25T15:03:26.632Z,11.67
2019-04-25T15:05:52.604Z,11.10
2019-04-25T15:08:18.788Z,11.03
2019-04-25T15:10:44.629Z,11.50
2019-04-25T15:13:11.218Z,9.87
2019-04-25T15:15:37.248Z,10.70
2019-04-25T15:18:03.306Z,8.53
2019-04-25T15:20:30.149Z,9.20
2019-04-25T15:22:56.119Z,9.47
2019-04-25T15:25:22.320Z,9.17
2019-04-25T15:27:48.159Z,9.37
2019-04-25T15:30:16.220Z,9.73
2019-04-25T15:32:42.105Z,8.67
2019-04-25T15:35:09.943Z,9.27
2019-04-25T15:37:38.495Z,8.80
2019-04-25T15:40:07.607Z,8.30
2019-04-25T15:42:35.458Z,9.20
2019-04-25T15:45:12.202Z,8.67
2019-04-25T15:47:38.044Z,8.20
2019-04-25T15:50:04.968Z,8.93
2019-04-25T15:52:31.473Z,8.60
2019-04-25T15:55:06.909Z,9.37
2019-04-25T15:57:25.405Z,8.43
2019-04-25T15:59:51.239Z,7.93
2019-04-25T16:02:18.200Z,8.67
2019-04-25T16:04:44.058Z,9.50
2019-04-25T16:07:10.909Z,9.90
2019-04-25T16:09:36.741Z,7.70
2019-04-25T16:12:02.822Z,7.37
2019-04-25T16:14:28.647Z,7.80
2019-04-25T16:16:54.602Z,7.83
2019-04-25T16:19:20.542Z,7.80
2019-04-25T16:21:46.487Z,7.33
2019-04-25T16:24:12.839Z,6.63
2019-04-25T16:26:38.682Z,6.27
2019-04-25T16:29:04.826Z,6.50
2019-04-25T16:31:30.761Z,6.30
2019-04-25T16:33:56.612Z,6.80
2019-04-25T16:36:22.678Z,6.97
2019-04-25T16:38:48.628Z,6.10
2019-04-25T16:41:14.993Z,6.07
2019-04-25T16:43:43.225Z,6.43
2019-04-25T16:46:09.257Z,6.43
2019-04-25T16:48:35.686Z,9.20
2019-04-25T16:51:01.546Z,5.47
2019-04-25T16:53:27.697Z,5.03
2019-04-25T16:55:53.629Z,5.33
2019-04-25T16:58:19.592Z,5.63
2019-04-25T17:00:47.540Z,5.57
2019-04-25T17:03:14.612Z,5.20
2019-04-25T17:05:40.854Z,6.10
2019-04-25T17:08:07.199Z,6.90
2019-04-25T17:10:33.194Z,7.23
2019-04-25T17:12:59.166Z,4.83
2019-04-25T17:15:32.897Z,5.67
2019-04-25T17:18:06.948Z,5.40
2019-04-25T17:20:34.829Z,6.33
2019-04-25T17:23:02.567Z,6.10
2019-04-25T17:25:28.411Z,5.80
2019-04-25T17:27:54.463Z,5.20
2019-04-25T17:30:20.835Z,5.33
2019-04-25T17:32:53.874Z,5.80
2019-04-25T17:35:21.311Z,6.63
2019-04-25T17:37:52.311Z,5.57
2019-04-25T17:40:26.096Z,4.60
2019-04-25T17:42:51.918Z,4.57
2019-04-25T17:45:19.732Z,4.57
2019-04-25T17:47:54.349Z,5.13
2019-04-25T17:50:13.602Z,3.70
2019-04-25T17:52:40.632Z,3.90
2019-04-25T17:55:06.959Z,4.23
2019-04-25T17:57:33.073Z,3.60
2019-04-25T17:59:59.187Z,4.67
2019-04-25T18:02:25.107Z,3.80
2019-04-25T18:04:51.042Z,4.43
2019-04-25T18:07:16.971Z,4.37
2019-04-25T18:09:43.472Z,6.20
2019-04-25T18:12:09.691Z,4.77
2019-04-25T18:14:36.398Z,4.90
2019-04-25T18:17:02.738Z,4.70
2019-04-25T18:19:42.853Z,4.90
2019-04-25T18:22:10.784Z,5.57
2019-04-25T18:24:45.305Z,6.00
2019-04-25T18:27:13.399Z,6.70
2019-04-25T18:29:39.525Z,5.63
2019-04-25T18:32:05.760Z,5.30
2019-04-25T18:34:46.510Z,4.73
2019-04-25T18:37:20.728Z,4.80
2019-04-25T18:40:06.708Z,5.53
2019-04-25T18:42:44.167Z,5.07
2019-04-25T18:45:12.353Z,5.40
2019-04-25T18:47:38.301Z,5.63
2019-04-25T18:50:05.411Z,5.00
2019-04-25T18:52:45.212Z,4.90
2019-04-25T18:55:13.152Z,4.77
2019-04-25T18:57:45.478Z,5.50
2019-04-25T19:00:25.544Z,6.20
2019-04-25T19:02:53.319Z,5.90
2019-04-25T19:05:21.158Z,5.50
2019-04-25T19:07:47.407Z,5.13
2019-04-25T19:10:13.886Z,7.03
2019-04-25T19:12:40.211Z,6.90
2019-04-25T19:15:07.607Z,7.07
2019-04-25T19:17:34.593Z,7.20
2019-04-25T19:20:00.440Z,6.67
2019-04-25T19:22:26.349Z,7.00
2019-04-25T19:24:52.273Z,5.97
2019-04-25T19:27:23.926Z,5.17
2019-04-25T19:29:47.462Z,5.07
2019-04-25T19:32:13.309Z,5.83
2019-04-25T19:34:42.560Z,6.20
2019-04-25T19:37:08.713Z,11.87
2019-04-25T19:39:36.472Z,5.03
2019-04-25T19:42:19.273Z,5.77
2019-04-25T19:44:45.307Z,6.90
2019-04-25T19:47:11.366Z,6.10
2019-04-25T19:49:37.473Z,6.23
2019-04-25T19:52:03.519Z,6.70
2019-04-25T19:54:29.405Z,6.30
2019-04-25T19:56:56.510Z,6.63
2019-04-25T19:59:22.659Z,6.77
2019-04-25T20:01:50.605Z,8.07
2019-04-25T20:04:18.631Z,7.50
2019-04-25T20:07:03.069Z,6.87
2019-04-25T20:09:33.580Z,6.60
2019-04-25T20:11:59.539Z,5.47
2019-04-25T20:14:25.542Z,4.80
2019-04-25T20:16:51.766Z,5.27
2019-04-25T20:19:18.077Z,4.67
2019-04-25T20:21:44.586Z,5.20
2019-04-25T20:24:11.693Z,5.00
2019-04-25T20:26:37.632Z,4.83
2019-04-25T20:29:03.678Z,5.07
2019-04-25T20:31:29.559Z,5.30
2019-04-25T20:34:05.390Z,5.90
2019-04-25T20:36:23.329Z,6.70
2019-04-25T20:38:49.370Z,6.17
2019-04-25T20:41:15.294Z,6.97
2019-04-25T20:43:41.298Z,6.50
2019-04-25T20:46:07.379Z,5.67
2019-04-25T20:48:33.439Z,5.30
2019-04-25T20:50:59.375Z,5.13
2019-04-25T20:53:25.408Z,4.50
2019-04-25T20:55:51.446Z,4.37
2019-04-25T20:58:17.490Z,4.00
2019-04-25T21:00:45.699Z,4.40
2019-04-25T21:03:11.742Z,3.80
2019-04-25T21:05:37.804Z,3.63
2019-04-25T21:08:03.805Z,3.67
2019-04-25T21:10:29.637Z,3.60
2019-04-25T21:12:55.773Z,3.67
2019-04-25T21:15:35.327Z,3.53
2019-04-25T21:18:05.747Z,3.60
2019-04-25T21:20:31.741Z,4.10
2019-04-25T21:22:57.890Z,3.77
2019-04-25T21:25:23.928Z,3.77
2019-04-25T21:27:50.205Z,3.77
2019-04-25T21:30:17.394Z,3.17
2019-04-25T21:32:52.281Z,3.30
2019-04-25T21:35:19.929Z,3.30
2019-04-25T21:37:46.170Z,3.63
2019-04-25T21:40:26.645Z,3.70
2019-04-25T21:43:04.927Z,3.73
2019-04-25T21:45:31.890Z,3.30
2019-04-25T21:47:58.749Z,3.80
2019-04-25T21:50:25.113Z,3.63
2019-04-25T21:52:51.433Z,3.87
2019-04-25T21:55:17.608Z,3.77
2019-04-25T21:57:43.760Z,3.40
2019-04-25T22:00:14.812Z,3.43
2019-04-25T22:02:41.104Z,3.80
2019-04-25T22:05:07.439Z,3.93
2019-04-25T22:07:33.819Z,4.00
2019-04-25T22:10:00.294Z,3.60
2019-04-25T22:12:26.236Z,4.27
2019-04-25T22:14:52.260Z,3.67
2019-04-25T22:17:18.322Z,3.63
2019-04-25T22:19:44.572Z,4.07
2019-04-25T22:22:10.936Z,4.10
2019-04-25T22:24:36.907Z,4.40
2019-04-25T22:27:05.393Z,4.50
2019-04-25T22:29:33.147Z,4.30
2019-04-25T22:32:01.489Z,4.30
2019-04-25T22:34:29.973Z,4.40
2019-04-25T22:36:55.909Z,4.40
2019-04-25T22:39:21.786Z,4.90
2019-04-25T22:41:49.825Z,4.53
2019-04-25T22:44:17.766Z,4.53
2019-04-25T22:46:43.946Z,4.40
2019-04-25T22:49:10.081Z,5.57
2019-04-25T22:51:36.468Z,5.70
2019-04-25T22:54:03.817Z,6.57
2019-04-25T22:56:29.676Z,7.30
2019-04-25T22:58:55.729Z,7.47
2019-04-25T23:01:35.989Z,7.30
2019-04-25T23:04:03.829Z,8.17
2019-04-25T23:06:30.011Z,8.03
2019-04-25T23:08:55.894Z,9.13
2019-04-25T23:11:21.725Z,8.87
2019-04-25T23:13:47.763Z,9.37
2019-04-25T23:16:13.932Z,9.67
2019-04-25T23:18:39.770Z,9.87
2019-04-25T23:21:06.732Z,10.37
2019-04-25T23:23:32.671Z,10.47
2019-04-25T23:26:00.431Z,10.00
2019-04-25T23:28:31.342Z,10.63
2019-04-25T23:31:02.047Z,10.37
2019-04-25T23:33:27.894Z,10.13
2019-04-25T23:35:54.147Z,10.63
2019-04-25T23:38:19.969Z,11.00
2019-04-25T23:40:46.076Z,10.20
2019-04-25T23:43:12.467Z,11.47
2019-04-25T23:45:38.297Z,12.07
2019-04-25T23:48:04.176Z,11.27
2019-04-25T23:50:30.303Z,11.40
2019-04-25T23:52:56.126Z,11.23
2019-04-25T23:55:22.531Z,11.63
2019-04-25T23:57:48.547Z,11.20
